createdAt,value
2019-05-26T00:02:18.870Z,13.23
2019-05-26T00:04:45.627Z,11.47
2019-05-26T00:07:12.735Z,12.50
2019-05-26T00:09:39.451Z,15.03
2019-05-26T00:12:06.172Z,13.50
2019-05-26T00:14:32.875Z,11.20
2019-05-26T00:16:59.606Z,11.27
2019-05-26T00:19:26.321Z,13.23
2019-05-26T00:21:56.101Z,11.63
2019-05-26T00:24:22.800Z,11.27
2019-05-26T00:26:49.537Z,15.43
2019-05-26T00:29:16.246Z,12.20
2019-05-26T00:31:42.985Z,11.10
2019-05-26T00:34:09.868Z,11.47
2019-05-26T00:36:36.685Z,12.20
2019-05-26T00:39:05.463Z,10.80
2019-05-26T00:41:32.187Z,16.80
2019-05-26T00:43:58.911Z,11.27
2019-05-26T00:46:25.629Z,12.43
2019-05-26T00:48:52.348Z,10.40
2019-05-26T00:51:19.907Z,14.07
2019-05-26T00:53:47.249Z,11.60
2019-05-26T00:56:13.942Z,19.77
2019-05-26T00:58:40.987Z,13.27
2019-05-26T01:01:08.052Z,13.43
2019-05-26T01:03:34.770Z,11.80
2019-05-26T01:06:01.588Z,12.83
2019-05-26T01:08:28.363Z,15.40
2019-05-26T01:10:55.486Z,11.70
2019-05-26T01:13:24.924Z,13.23
2019-05-26T01:15:51.757Z,12.67
2019-05-26T01:18:18.499Z,13.90
2019-05-26T01:20:45.258Z,12.30
2019-05-26T01:23:12.023Z,19.17
2019-05-26T01:25:39.069Z,17.67
2019-05-26T01:28:05.891Z,12.03
2019-05-26T01:30:37.151Z,12.83
2019-05-26T01:33:04.348Z,12.40
2019-05-26T01:35:31.156Z,14.27
2019-05-26T01:37:58.220Z,11.43
2019-05-26T01:40:37.845Z,12.03
2019-05-26T01:43:04.558Z,16.93
2019-05-26T01:45:31.293Z,13.90
2019-05-26T01:47:58.005Z,13.87
2019-05-26T01:50:24.767Z,15.60
2019-05-26T01:52:51.518Z,12.83
2019-05-26T01:55:19.423Z,12.53
2019-05-26T01:57:46.188Z,11.97
2019-05-26T02:00:12.893Z,13.23
2019-05-26T02:02:39.609Z,11.50
2019-05-26T02:05:06.621Z,11.37
2019-05-26T02:07:33.335Z,13.33
2019-05-26T02:10:00.098Z,10.97
2019-05-26T02:12:26.831Z,11.70
2019-05-26T02:14:53.632Z,11.10
2019-05-26T02:17:20.349Z,14.70
2019-05-26T02:19:47.407Z,14.23
2019-05-26T02:22:14.122Z,14.17
2019-05-26T02:24:42.634Z,14.10
2019-05-26T02:27:09.373Z,20.37
2019-05-26T02:29:36.105Z,20.40
2019-05-26T02:32:02.826Z,12.20
2019-05-26T02:34:29.547Z,12.33
2019-05-26T02:36:56.274Z,11.70
2019-05-26T02:39:23.026Z,13.70
2019-05-26T02:41:50.041Z,12.20
2019-05-26T02:44:16.853Z,16.33
2019-05-26T02:46:43.547Z,11.73
2019-05-26T02:49:10.283Z,11.87
2019-05-26T02:51:40.047Z,11.80
2019-05-26T02:54:06.842Z,11.47
2019-05-26T02:56:35.674Z,12.07
2019-05-26T02:59:02.415Z,13.50
2019-05-26T03:01:29.161Z,16.43
2019-05-26T03:03:55.886Z,14.30
2019-05-26T03:06:22.786Z,20.50
2019-05-26T03:08:49.579Z,11.77
2019-05-26T03:11:16.321Z,11.30
2019-05-26T03:13:43.046Z,12.60
2019-05-26T03:16:09.807Z,12.40
2019-05-26T03:18:36.604Z,11.80
2019-05-26T03:21:07.730Z,13.93
2019-05-26T03:23:34.440Z,12.47
2019-05-26T03:26:01.149Z,13.30
2019-05-26T03:28:27.974Z,11.80
2019-05-26T03:30:54.681Z,12.63
2019-05-26T03:33:21.426Z,12.33
2019-05-26T03:35:51.098Z,13.10
2019-05-26T03:38:18.338Z,10.60
2019-05-26T03:40:45.073Z,13.37
2019-05-26T03:43:11.817Z,11.93
2019-05-26T03:46:19.355Z,16.97
2019-05-26T03:48:46.112Z,11.73
2019-05-26T03:51:15.173Z,13.13
2019-05-26T03:53:41.888Z,10.97
2019-05-26T03:56:08.589Z,11.17
2019-05-26T03:58:35.332Z,12.00
2019-05-26T04:01:02.170Z,11.37
2019-05-26T04:03:29.296Z,11.77
2019-05-26T04:05:56.040Z,11.47
2019-05-26T04:08:22.752Z,10.93
2019-05-26T04:10:50.654Z,10.80
2019-05-26T04:13:17.410Z,11.10
2019-05-26T04:15:44.542Z,11.37
2019-05-26T04:18:13.321Z,11.43
2019-05-26T04:20:45.795Z,15.70
2019-05-26T04:23:10.497Z,12.00
2019-05-26T04:25:37.802Z,10.50
2019-05-26T04:28:04.524Z,12.07
2019-05-26T04:30:31.261Z,14.47
2019-05-26T04:32:58.102Z,11.83
2019-05-26T04:35:24.898Z,11.20
2019-05-26T04:37:51.612Z,10.60
2019-05-26T04:40:26.354Z,10.30
2019-05-26T04:42:47.133Z,11.43
2019-05-26T04:45:13.809Z,11.70
2019-05-26T04:47:40.523Z,11.90
2019-05-26T04:50:07.408Z,11.20
2019-05-26T04:52:34.233Z,12.57
2019-05-26T04:55:00.959Z,11.83
2019-05-26T04:57:28.030Z,11.77
2019-05-26T04:59:54.747Z,11.67
2019-05-26T05:02:21.453Z,13.10
2019-05-26T05:04:48.198Z,11.60
2019-05-26T05:07:15.253Z,11.70
2019-05-26T05:09:41.958Z,12.63
2019-05-26T05:12:08.664Z,11.70
2019-05-26T05:14:35.368Z,12.40
2019-05-26T05:17:02.103Z,14.27
2019-05-26T05:19:28.806Z,14.03
2019-05-26T05:21:57.614Z,16.30
2019-05-26T05:24:24.346Z,14.40
2019-05-26T05:26:51.154Z,16.60
2019-05-26T05:29:17.882Z,12.40
2019-05-26T05:31:45.359Z,12.83
2019-05-26T05:34:12.059Z,16.30
2019-05-26T05:36:41.597Z,15.20
2019-05-26T05:39:08.414Z,13.47
2019-05-26T05:41:35.255Z,14.17
2019-05-26T05:44:01.959Z,14.70
2019-05-26T05:46:28.814Z,13.77
2019-05-26T05:48:55.581Z,18.10
2019-05-26T05:51:22.308Z,14.33
2019-05-26T05:53:49.172Z,13.80
2019-05-26T05:56:15.876Z,16.20
2019-05-26T05:58:42.616Z,13.73
2019-05-26T06:01:09.333Z,15.97
2019-05-26T06:03:36.063Z,13.23
2019-05-26T06:06:02.762Z,12.90
2019-05-26T06:08:29.496Z,15.70
2019-05-26T06:10:56.226Z,14.60
2019-05-26T06:13:23.323Z,13.20
2019-05-26T06:15:50.043Z,11.93
2019-05-26T06:18:17.237Z,12.43
2019-05-26T06:20:43.978Z,13.53
2019-05-26T06:23:10.803Z,13.07
2019-05-26T06:25:37.624Z,12.63
2019-05-26T06:28:04.435Z,12.53
2019-05-26T06:30:31.177Z,12.43
2019-05-26T06:32:57.918Z,11.63
2019-05-26T06:35:25.930Z,16.13
2019-05-26T06:37:52.663Z,13.90
2019-05-26T06:40:19.380Z,12.17
2019-05-26T06:42:48.922Z,10.47
2019-05-26T06:45:15.654Z,13.80
2019-05-26T06:47:42.416Z,11.23
2019-05-26T06:50:09.218Z,10.90
2019-05-26T06:52:38.130Z,10.20
2019-05-26T06:55:05.007Z,11.40
2019-05-26T06:57:31.847Z,12.93
2019-05-26T06:59:58.581Z,9.97
2019-05-26T07:02:25.417Z,14.13
2019-05-26T07:04:52.132Z,13.00
2019-05-26T07:07:18.881Z,10.07
2019-05-26T07:09:45.627Z,10.30
2019-05-26T07:12:12.380Z,11.80
2019-05-26T07:14:39.128Z,9.57
2019-05-26T07:17:07.615Z,13.70
2019-05-26T07:19:34.321Z,13.03
2019-05-26T07:22:01.170Z,10.53
2019-05-26T07:24:29.438Z,10.23
2019-05-26T07:26:56.430Z,9.63
2019-05-26T07:29:23.351Z,13.77
2019-05-26T07:31:50.190Z,12.40
2019-05-26T07:34:16.948Z,15.57
2019-05-26T07:36:43.667Z,10.13
2019-05-26T07:39:10.499Z,11.37
2019-05-26T07:41:37.241Z,9.57
2019-05-26T07:44:03.991Z,11.97
2019-05-26T07:46:30.721Z,9.00
2019-05-26T07:49:00.450Z,8.50
2019-05-26T07:51:27.241Z,8.07
2019-05-26T07:53:56.220Z,9.40
2019-05-26T07:56:23.235Z,7.87
2019-05-26T07:58:53.294Z,7.83
2019-05-26T08:01:24.184Z,8.77
2019-05-26T08:03:48.646Z,7.50
2019-05-26T08:06:15.408Z,9.90
2019-05-26T08:08:44.448Z,10.83
2019-05-26T08:11:11.162Z,10.20
2019-05-26T08:13:39.472Z,7.07
2019-05-26T08:16:07.394Z,10.20
2019-05-26T08:18:34.128Z,7.50
2019-05-26T08:21:00.989Z,11.10
2019-05-26T08:23:27.737Z,9.93
2019-05-26T08:25:55.077Z,9.73
2019-05-26T08:28:21.822Z,8.30
2019-05-26T08:30:48.851Z,14.30
2019-05-26T08:33:17.963Z,8.90
2019-05-26T08:35:44.706Z,6.00
2019-05-26T08:38:11.455Z,4.33
2019-05-26T08:40:43.307Z,5.87
2019-05-26T08:43:10.056Z,5.00
2019-05-26T08:45:37.184Z,4.70
2019-05-26T08:48:05.555Z,4.73
2019-05-26T08:50:34.359Z,6.33
2019-05-26T08:53:00.984Z,5.23
2019-05-26T08:55:27.838Z,4.63
2019-05-26T08:57:54.784Z,7.37
2019-05-26T09:00:22.008Z,5.13
2019-05-26T09:02:50.198Z,6.03
2019-05-26T09:05:18.318Z,6.13
2019-05-26T09:07:45.047Z,6.40
2019-05-26T09:10:11.799Z,6.63
2019-05-26T09:12:39.250Z,6.90
2019-05-26T09:15:06.090Z,7.67
2019-05-26T09:17:32.924Z,7.40
2019-05-26T09:19:59.678Z,6.80
2019-05-26T09:22:26.786Z,8.07
2019-05-26T09:24:53.692Z,6.90
2019-05-26T09:27:20.526Z,7.53
2019-05-26T09:29:47.262Z,7.77
2019-05-26T09:32:13.984Z,8.20
2019-05-26T09:34:40.711Z,8.40
2019-05-26T09:37:09.426Z,7.53
2019-05-26T09:39:36.225Z,6.03
2019-05-26T09:42:02.968Z,5.80
2019-05-26T09:44:29.686Z,6.40
2019-05-26T09:46:56.442Z,6.07
2019-05-26T09:49:23.696Z,7.40
2019-05-26T09:51:50.816Z,6.00
2019-05-26T09:54:17.546Z,5.63
2019-05-26T09:56:44.253Z,5.80
2019-05-26T09:59:10.996Z,5.07
2019-05-26T10:01:37.680Z,8.20
2019-05-26T10:04:04.574Z,4.97
2019-05-26T10:06:31.660Z,5.60
2019-05-26T10:08:58.372Z,9.10
2019-05-26T10:11:25.131Z,4.70
2019-05-26T10:13:51.823Z,3.90
2019-05-26T10:16:18.956Z,4.03
2019-05-26T10:18:47.788Z,4.23
2019-05-26T10:21:17.927Z,4.17
2019-05-26T10:23:44.648Z,4.60
2019-05-26T10:26:11.361Z,4.17
2019-05-26T10:28:38.073Z,3.10
2019-05-26T10:31:05.315Z,3.40
2019-05-26T10:33:32.064Z,6.27
2019-05-26T10:35:58.780Z,3.57
2019-05-26T10:38:25.504Z,3.23
2019-05-26T10:40:52.238Z,3.57
2019-05-26T10:43:18.952Z,3.03
2019-05-26T10:45:45.652Z,3.10
2019-05-26T10:48:12.405Z,3.20
2019-05-26T10:50:39.140Z,3.03
2019-05-26T10:53:05.863Z,3.60
2019-05-26T10:55:32.573Z,3.10
2019-05-26T10:58:02.146Z,3.13
2019-05-26T11:00:33.107Z,3.53
2019-05-26T11:02:59.971Z,2.83
2019-05-26T11:05:26.748Z,3.40
2019-05-26T11:07:53.466Z,3.20
2019-05-26T11:10:20.221Z,8.13
2019-05-26T11:12:46.940Z,3.83
2019-05-26T11:15:13.744Z,3.53
2019-05-26T11:17:40.577Z,6.53
2019-05-26T11:20:07.445Z,2.60
2019-05-26T11:22:34.149Z,3.07
2019-05-26T11:25:00.866Z,2.50
2019-05-26T11:27:27.587Z,7.07
2019-05-26T11:29:56.717Z,4.73
2019-05-26T11:32:23.760Z,3.80
2019-05-26T11:35:01.073Z,3.00
2019-05-26T11:37:20.991Z,2.93
2019-05-26T11:39:51.263Z,3.30
2019-05-26T11:42:18.142Z,3.30
2019-05-26T11:44:45.133Z,5.10
2019-05-26T11:47:11.897Z,3.43
2019-05-26T11:49:38.824Z,3.00
2019-05-26T11:52:06.268Z,4.70
2019-05-26T11:54:34.689Z,3.80
2019-05-26T11:57:01.680Z,3.10
2019-05-26T11:59:28.510Z,3.10
2019-05-26T12:01:55.304Z,4.70
2019-05-26T12:04:22.016Z,3.47
2019-05-26T12:06:52.133Z,4.50
2019-05-26T12:09:18.892Z,4.57
2019-05-26T12:11:45.623Z,4.83
2019-05-26T12:14:12.327Z,13.60
2019-05-26T12:16:39.062Z,4.70
2019-05-26T12:19:05.760Z,5.93
2019-05-26T12:21:32.456Z,3.80
2019-05-26T12:23:59.210Z,5.03
2019-05-26T12:26:25.940Z,5.00
2019-05-26T12:28:52.756Z,5.50
2019-05-26T12:31:19.941Z,4.70
2019-05-26T12:33:46.763Z,14.10
2019-05-26T12:36:13.521Z,4.97
2019-05-26T12:38:52.568Z,5.47
2019-05-26T12:41:20.468Z,4.60
2019-05-26T12:43:47.192Z,4.80
2019-05-26T12:46:13.911Z,6.00
2019-05-26T12:48:40.635Z,4.23
2019-05-26T12:51:07.719Z,4.50
2019-05-26T12:53:34.546Z,5.00
2019-05-26T12:56:01.230Z,9.40
2019-05-26T12:58:28.436Z,4.10
2019-05-26T13:00:55.476Z,4.67
2019-05-26T13:03:22.463Z,3.97
2019-05-26T13:05:49.186Z,7.50
2019-05-26T13:08:15.901Z,3.23
2019-05-26T13:10:42.642Z,4.93
2019-05-26T13:13:09.356Z,3.60
2019-05-26T13:15:36.060Z,3.93
2019-05-26T13:18:02.824Z,3.13
2019-05-26T13:20:29.523Z,3.97
2019-05-26T13:22:56.757Z,3.50
2019-05-26T13:25:23.483Z,3.30
2019-05-26T13:27:53.145Z,4.00
2019-05-26T13:30:19.985Z,3.40
2019-05-26T13:32:46.693Z,4.00
2019-05-26T13:35:16.398Z,6.33
2019-05-26T13:37:43.109Z,4.17
2019-05-26T13:40:12.737Z,4.50
2019-05-26T13:42:39.436Z,3.67
2019-05-26T13:45:21.112Z,3.20
2019-05-26T13:47:35.332Z,6.63
2019-05-26T13:50:02.309Z,3.00
2019-05-26T13:52:29.071Z,2.93
2019-05-26T13:54:55.846Z,4.03
2019-05-26T13:57:22.633Z,2.50
2019-05-26T13:59:49.554Z,2.83
2019-05-26T14:02:16.803Z,2.63
2019-05-26T14:04:43.541Z,2.87
2019-05-26T14:07:10.269Z,3.60
2019-05-26T14:09:37.215Z,2.60
2019-05-26T14:12:04.057Z,4.40
2019-05-26T14:14:30.829Z,2.50
2019-05-26T14:16:57.782Z,2.40
2019-05-26T14:19:27.868Z,2.40
2019-05-26T14:21:54.599Z,2.50
2019-05-26T14:24:21.373Z,6.63
2019-05-26T14:26:49.191Z,2.70
2019-05-26T14:29:15.937Z,2.30
2019-05-26T14:31:42.659Z,2.27
2019-05-26T14:34:09.371Z,2.57
2019-05-26T14:36:36.166Z,2.43
2019-05-26T14:39:05.583Z,3.10
2019-05-26T14:41:32.347Z,2.43
2019-05-26T14:43:59.141Z,2.03
2019-05-26T14:46:25.993Z,2.40
2019-05-26T14:48:52.732Z,3.10
2019-05-26T14:51:19.427Z,2.30
2019-05-26T14:53:46.320Z,2.03
2019-05-26T14:56:13.819Z,2.00
2019-05-26T14:58:41.274Z,1.97
2019-05-26T15:01:08.058Z,2.40
2019-05-26T15:03:34.813Z,2.03
2019-05-26T15:06:05.874Z,1.90
2019-05-26T15:08:30.249Z,3.23
2019-05-26T15:10:57.043Z,2.17
2019-05-26T15:13:23.792Z,2.00
2019-05-26T15:15:50.653Z,2.57
2019-05-26T15:18:17.723Z,2.23
2019-05-26T15:20:44.449Z,1.90
2019-05-26T15:23:11.193Z,3.10
2019-05-26T15:25:38.450Z,1.70
2019-05-26T15:28:07.419Z,2.67
2019-05-26T15:30:34.140Z,2.03
2019-05-26T15:33:00.898Z,2.13
2019-05-26T15:35:27.639Z,1.83
2019-05-26T15:37:54.616Z,2.00
2019-05-26T15:40:21.341Z,2.30
2019-05-26T15:42:48.399Z,2.27
2019-05-26T15:45:17.547Z,3.03
2019-05-26T15:47:44.412Z,2.43
2019-05-26T15:50:13.774Z,2.53
2019-05-26T15:52:40.735Z,2.97
2019-05-26T15:55:07.474Z,2.33
2019-05-26T15:57:34.164Z,2.43
2019-05-26T16:00:01.142Z,2.50
2019-05-26T16:02:27.887Z,1.97
2019-05-26T16:04:54.618Z,2.27
2019-05-26T16:07:21.380Z,2.00
2019-05-26T16:09:48.129Z,2.50
2019-05-26T16:12:15.218Z,2.30
2019-05-26T16:14:41.951Z,2.80
2019-05-26T16:17:08.674Z,2.10
2019-05-26T16:19:35.414Z,2.83
2019-05-26T16:22:02.375Z,2.00
2019-05-26T16:24:29.094Z,2.17
2019-05-26T16:26:55.855Z,2.27
2019-05-26T16:29:22.601Z,1.90
2019-05-26T16:31:49.337Z,2.23
2019-05-26T16:34:17.003Z,2.03
2019-05-26T16:36:46.617Z,2.53
2019-05-26T16:39:13.340Z,2.60
2019-05-26T16:41:40.029Z,3.73
2019-05-26T16:44:06.789Z,3.30
2019-05-26T16:46:35.431Z,2.53
2019-05-26T16:49:04.685Z,2.30
2019-05-26T16:51:31.449Z,2.00
2019-05-26T16:53:58.149Z,2.20
2019-05-26T16:56:24.898Z,2.10
2019-05-26T16:58:52.153Z,1.70
2019-05-26T17:01:19.233Z,3.10
2019-05-26T17:03:45.943Z,2.20
2019-05-26T17:06:15.183Z,2.20
2019-05-26T17:08:42.022Z,2.03
2019-05-26T17:11:08.856Z,2.20
2019-05-26T17:13:35.965Z,2.50
2019-05-26T17:16:02.832Z,1.80
2019-05-26T17:18:29.859Z,2.20
2019-05-26T17:20:56.945Z,5.73
2019-05-26T17:23:23.790Z,2.40
2019-05-26T17:25:50.816Z,2.00
2019-05-26T17:28:17.682Z,1.90
2019-05-26T17:30:44.565Z,1.70
2019-05-26T17:33:11.298Z,1.90
2019-05-26T17:35:38.404Z,2.10
2019-05-26T17:38:05.146Z,2.10
2019-05-26T17:40:31.895Z,2.37
2019-05-26T17:42:59.131Z,3.80
2019-05-26T17:45:25.834Z,5.40
2019-05-26T17:47:52.609Z,2.43
2019-05-26T17:50:19.461Z,2.90
2019-05-26T17:52:46.198Z,2.20
2019-05-26T17:55:12.947Z,4.10
2019-05-26T17:57:39.777Z,2.50
2019-05-26T18:00:08.966Z,2.30
2019-05-26T18:02:36.035Z,1.90
2019-05-26T18:05:04.903Z,2.50
2019-05-26T18:07:31.742Z,2.37
2019-05-26T18:09:58.484Z,2.57
2019-05-26T18:12:25.262Z,2.67
2019-05-26T18:14:52.459Z,3.63
2019-05-26T18:17:19.202Z,2.57
2019-05-26T18:19:45.959Z,1.90
2019-05-26T18:22:13.546Z,3.33
2019-05-26T18:28:13.579Z,5.47
2019-05-26T18:31:24.064Z,2.50
2019-05-26T18:33:54.412Z,2.03
2019-05-26T18:36:21.160Z,2.10
2019-05-26T18:38:47.895Z,2.70
2019-05-26T18:41:14.749Z,2.60
2019-05-26T18:43:51.795Z,2.73
2019-05-26T18:46:18.547Z,3.50
2019-05-26T18:48:45.337Z,3.20
2019-05-26T18:51:12.062Z,2.50
2019-05-26T18:53:39.259Z,4.90
2019-05-26T18:56:06.224Z,2.30
2019-05-26T18:58:33.252Z,2.40
2019-05-26T19:01:00.619Z,4.70
2019-05-26T19:03:27.908Z,2.80
2019-05-26T19:05:56.628Z,5.40
2019-05-26T19:08:28.063Z,2.80
2019-05-26T19:10:57.522Z,2.90
2019-05-26T19:13:26.168Z,8.83
2019-05-26T19:15:53.014Z,6.33
2019-05-26T19:18:20.818Z,5.40
2019-05-26T19:20:47.961Z,2.50
2019-05-26T19:23:14.799Z,2.83
2019-05-26T19:25:41.599Z,2.93
2019-05-26T19:28:08.366Z,2.87
2019-05-26T19:30:35.306Z,2.20
2019-05-26T19:33:06.006Z,2.83
2019-05-26T19:35:33.077Z,3.60
2019-05-26T19:38:00.118Z,2.87
2019-05-26T19:40:27.022Z,2.60
2019-05-26T19:42:53.822Z,3.10
2019-05-26T19:45:23.551Z,3.13
2019-05-26T19:47:53.128Z,4.37
2019-05-26T19:50:20.055Z,3.70
2019-05-26T19:52:49.945Z,3.00
2019-05-26T19:55:16.984Z,6.80
2019-05-26T19:57:43.724Z,12.90
2019-05-26T20:00:11.202Z,3.10
2019-05-26T20:02:38.407Z,2.90
2019-05-26T20:05:06.013Z,2.27
2019-05-26T20:07:32.754Z,2.10
2019-05-26T20:09:59.746Z,2.70
2019-05-26T20:12:26.470Z,3.00
2019-05-26T20:14:53.220Z,3.30
2019-05-26T20:17:20.104Z,2.87
2019-05-26T20:19:46.865Z,3.10
2019-05-26T20:22:13.924Z,3.63
2019-05-26T20:24:41.031Z,3.40
2019-05-26T20:27:07.755Z,5.20
2019-05-26T20:29:34.594Z,2.93
2019-05-26T20:32:01.689Z,3.10
2019-05-26T20:34:30.579Z,3.50
2019-05-26T20:36:57.624Z,3.00
2019-05-26T20:39:24.376Z,3.00
2019-05-26T20:41:51.452Z,2.70
2019-05-26T20:44:18.423Z,2.90
2019-05-26T20:46:47.420Z,3.27
2019-05-26T20:49:14.161Z,5.40
2019-05-26T20:51:41.012Z,3.80
2019-05-26T20:54:07.765Z,3.37
2019-05-26T20:56:34.573Z,3.80
2019-05-26T20:59:01.664Z,3.20
2019-05-26T21:01:28.389Z,3.23
2019-05-26T21:03:55.173Z,2.50
2019-05-26T21:06:21.940Z,3.73
2019-05-26T21:08:50.110Z,3.60
2019-05-26T21:11:16.936Z,3.90
2019-05-26T21:13:43.703Z,3.27
2019-05-26T21:16:10.811Z,6.60
2019-05-26T21:18:37.732Z,3.50
2019-05-26T21:21:04.493Z,3.20
2019-05-26T21:23:31.225Z,5.20
2019-05-26T21:25:57.964Z,3.20
2019-05-26T21:28:24.678Z,4.30
2019-05-26T21:30:53.489Z,4.97
2019-05-26T21:33:20.458Z,7.20
2019-05-26T21:35:47.196Z,4.50
2019-05-26T21:38:14.256Z,3.93
2019-05-26T21:40:42.245Z,3.63
2019-05-26T21:43:09.113Z,5.20
2019-05-26T21:45:36.150Z,6.10
2019-05-26T21:48:03.259Z,5.17
2019-05-26T21:50:30.029Z,5.30
2019-05-26T21:52:56.742Z,2.70
2019-05-26T21:55:23.727Z,8.37
2019-05-26T21:57:50.706Z,3.13
2019-05-26T22:00:20.396Z,10.43
2019-05-26T22:02:47.241Z,4.10
2019-05-26T22:05:14.294Z,3.00
2019-05-26T22:07:41.016Z,5.20
2019-05-26T22:10:07.933Z,2.40
2019-05-26T22:12:34.942Z,2.90
2019-05-26T22:15:01.659Z,2.37
2019-05-26T22:17:28.464Z,6.20
2019-05-26T22:19:55.471Z,2.87
2019-05-26T22:22:22.200Z,2.70
2019-05-26T22:24:49.368Z,3.03
2019-05-26T22:27:16.108Z,2.40
2019-05-26T22:29:44.781Z,2.70
2019-05-26T22:32:11.612Z,2.67
2019-05-26T22:34:38.462Z,2.70
2019-05-26T22:37:05.530Z,2.90
2019-05-26T22:39:32.400Z,2.53
2019-05-26T22:41:59.355Z,2.77
2019-05-26T22:44:26.490Z,3.90
2019-05-26T22:46:53.363Z,2.90
2019-05-26T22:49:20.052Z,2.80
2019-05-26T22:51:47.872Z,3.13
2019-05-26T22:54:14.602Z,2.60
2019-05-26T22:56:41.329Z,2.60
2019-05-26T22:59:08.014Z,3.93
2019-05-26T23:01:34.752Z,2.97
2019-05-26T23:04:03.281Z,10.80
2019-05-26T23:06:30.513Z,2.60
2019-05-26T23:08:57.321Z,4.00
2019-05-26T23:11:24.672Z,3.10
2019-05-26T23:13:51.409Z,2.40
2019-05-26T23:16:18.145Z,3.30
2019-05-26T23:18:47.120Z,7.30
2019-05-26T23:21:13.846Z,2.63
2019-05-26T23:23:40.958Z,2.73
2019-05-26T23:26:07.647Z,3.17
2019-05-26T23:28:34.376Z,2.70
2019-05-26T23:31:01.052Z,3.10
2019-05-26T23:33:27.821Z,3.07
2019-05-26T23:35:54.567Z,2.63
2019-05-26T23:38:21.301Z,3.30
2019-05-26T23:40:48.040Z,5.83
2019-05-26T23:43:14.783Z,3.53
2019-05-26T23:45:41.509Z,3.13
2019-05-26T23:48:08.246Z,2.80
2019-05-26T23:50:34.965Z,3.03
2019-05-26T23:53:01.745Z,3.37
2019-05-26T23:55:28.800Z,3.30
2019-05-26T23:57:55.531Z,2.70
